Time;durP1;ratioP1;P1;durP2;ratioP2;P2;SDS_P1;SDS_P2;PMS_P1;PMS_P2;Temp;Humidity;BMP_temperature;BMP_pressure;BME280_temperature;BME280_humidity;BME280_pressure;Samples;Min_cycle;Max_cycle;Signal;HPM_P1;HPM_P2
2021/04/30 00:00:27;;;;;;;40.50;15.57;;;;;;;;;;4990831;28;20054;-85
2021/04/30 00:02:53;;;;;;;41.88;14.38;;;;;;;;;;4990782;28;20034;-84
2021/04/30 00:05:19;;;;;;;40.40;15.30;;;;;;;;;;4990855;28;20022;-85
2021/04/30 00:07:46;;;;;;;35.00;14.10;;;;;;;;;;4991927;28;20468;-86
2021/04/30 00:10:12;;;;;;;39.20;15.30;;;;;;;;;;4991942;28;20034;-86
2021/04/30 00:12:39;;;;;;;43.35;14.93;;;;;;;;;;4991820;28;20481;-86
2021/04/30 00:15:05;;;;;;;33.75;14.10;;;;;;;;;;4990673;28;20037;-86
2021/04/30 00:17:32;;;;;;;43.97;15.75;;;;;;;;;;4991693;28;20105;-86
2021/04/30 00:19:58;;;;;;;37.08;13.90;;;;;;;;;;4990491;28;20121;-86
2021/04/30 00:22:25;;;;;;;41.55;14.82;;;;;;;;;;4991781;28;20022;-86
2021/04/30 00:24:51;;;;;;;46.47;14.82;;;;;;;;;;4991660;28;20018;-87
2021/04/30 00:27:18;;;;;;;32.92;13.98;;;;;;;;;;4991651;28;20033;-86
2021/04/30 00:29:44;;;;;;;33.60;13.93;;;;;;;;;;4991691;28;20033;-86
2021/04/30 00:32:12;;;;;;;33.72;14.13;;;;;;;;;;4990351;28;20029;-86
2021/04/30 00:34:40;;;;;;;36.75;13.65;;;;;;;;;;4992123;28;20105;-86
2021/04/30 00:37:06;;;;;;;39.42;14.73;;;;;;;;;;4990186;28;20483;-86
2021/04/30 00:39:32;;;;;;;37.70;13.57;;;;;;;;;;4991506;28;20037;-86
2021/04/30 00:41:59;;;;;;;30.58;12.98;;;;;;;;;;4990269;28;20421;-86
2021/04/30 00:44:25;;;;;;;41.30;14.40;;;;;;;;;;4990260;28;20026;-86
2021/04/30 00:46:51;;;;;;;34.97;13.73;;;;;;;;;;4990371;28;20030;-84
2021/04/30 00:49:17;;;;;;;34.90;14.25;;;;;;;;;;4991157;28;20130;-85
2021/04/30 00:51:44;;;;;;;41.65;14.07;;;;;;;;;;4990169;28;20023;-86
2021/04/30 00:54:10;;;;;;;33.03;13.60;;;;;;;;;;4990088;28;20100;-86
2021/04/30 00:56:36;;;;;;;41.45;13.95;;;;;;;;;;4991828;28;20030;-86
2021/04/30 00:59:03;;;;;;;36.03;13.48;;;;;;;;;;4990080;28;20033;-86
2021/04/30 01:01:30;;;;;;;34.85;13.27;;;;;;;;;;4991320;28;20077;-86
2021/04/30 01:03:56;;;;;;;30.80;12.07;;;;;;;;;;4991690;28;20058;-86
2021/04/30 01:06:23;;;;;;;32.38;12.73;;;;;;;;;;4991641;28;20041;-86
2021/04/30 01:08:49;;;;;;;28.13;11.48;;;;;;;;;;4991087;28;20045;-86
2021/04/30 01:11:16;;;;;;;28.77;12.45;;;;;;;;;;4991187;28;20041;-86
2021/04/30 01:13:42;;;;;;;30.48;13.32;;;;;;;;;;4991613;28;20410;-85
2021/04/30 01:16:09;;;;;;;31.00;13.05;;;;;;;;;;4991096;28;20030;-86
2021/04/30 01:18:42;;;;;;;35.38;13.23;;;;;;;;;;4989824;28;20554;-87
2021/04/30 01:21:08;;;;;;;33.90;13.88;;;;;;;;;;4989710;28;20042;-86
2021/04/30 01:23:44;;;;;;;39.03;13.82;;;;;;;;;;4991462;28;20027;-86
2021/04/30 01:26:10;;;;;;;31.00;12.32;;;;;;;;;;4991079;28;20084;-86
2021/04/30 01:28:36;;;;;;;35.28;12.68;;;;;;;;;;4990949;28;20030;-86
2021/04/30 01:31:03;;;;;;;36.35;12.60;;;;;;;;;;4990864;28;20023;-86
2021/04/30 01:33:29;;;;;;;32.78;12.02;;;;;;;;;;4989595;28;20026;-86
2021/04/30 01:35:55;;;;;;;28.95;12.90;;;;;;;;;;4989510;28;20027;-86
2021/04/30 01:38:22;;;;;;;34.35;12.23;;;;;;;;;;4989516;28;20061;-85
2021/04/30 01:40:48;;;;;;;32.03;12.57;;;;;;;;;;4989745;28;20046;-86
2021/04/30 01:43:15;;;;;;;26.60;12.63;;;;;;;;;;4989467;28;20027;-86
2021/04/30 01:45:43;;;;;;;27.60;11.23;;;;;;;;;;4989355;28;20387;-85
2021/04/30 01:48:12;;;;;;;31.90;11.75;;;;;;;;;;4990649;28;20029;-85
2021/04/30 01:50:38;;;;;;;31.38;11.85;;;;;;;;;;4989177;28;20517;-85
2021/04/30 01:53:07;;;;;;;32.13;11.85;;;;;;;;;;4989314;28;20075;-86
2021/04/30 01:55:33;;;;;;;27.55;12.02;;;;;;;;;;4989317;28;20033;-85
2021/04/30 01:58:00;;;;;;;26.63;11.00;;;;;;;;;;4990495;28;20111;-85
2021/04/30 02:00:27;;;;;;;24.77;9.98;;;;;;;;;;4990412;28;20034;-85
2021/04/30 02:02:54;;;;;;;26.73;11.00;;;;;;;;;;4989229;28;20058;-85
2021/04/30 02:05:21;;;;;;;21.75;9.93;;;;;;;;;;4990507;28;20661;-86
2021/04/30 02:07:48;;;;;;;24.15;10.75;;;;;;;;;;4989236;28;20028;-85
2021/04/30 02:10:16;;;;;;;23.23;9.85;;;;;;;;;;4990469;28;20014;-84
2021/04/30 02:12:42;;;;;;;21.63;8.75;;;;;;;;;;4989157;28;20102;-85
2021/04/30 02:15:09;;;;;;;17.25;7.70;;;;;;;;;;4992968;28;20103;-85
2021/04/30 02:17:37;;;;;;;15.32;6.50;;;;;;;;;;4992419;28;20026;-85
2021/04/30 02:20:07;;;;;;;13.93;6.22;;;;;;;;;;4992284;28;20091;-85
2021/04/30 02:22:33;;;;;;;11.23;5.45;;;;;;;;;;4992290;28;20034;-85
2021/04/30 02:25:00;;;;;;;12.10;5.70;;;;;;;;;;4992183;28;20081;-85
2021/04/30 02:27:26;;;;;;;12.77;4.90;;;;;;;;;;4992226;28;20387;-85
2021/04/30 02:29:52;;;;;;;12.25;5.20;;;;;;;;;;4993709;28;20379;-83
2021/04/30 02:32:19;;;;;;;11.27;4.72;;;;;;;;;;4992186;28;20079;-85
2021/04/30 02:34:45;;;;;;;11.32;4.68;;;;;;;;;;4993321;28;20030;-85
2021/04/30 02:37:12;;;;;;;10.55;4.75;;;;;;;;;;4992051;28;20019;-85
2021/04/30 02:39:38;;;;;;;10.90;4.50;;;;;;;;;;4991995;28;20035;-83
2021/04/30 02:42:05;;;;;;;9.38;4.70;;;;;;;;;;4991946;28;20495;-85
2021/04/30 02:44:31;;;;;;;8.32;4.40;;;;;;;;;;4993256;28;20051;-83
2021/04/30 02:46:58;;;;;;;8.02;4.20;;;;;;;;;;4991920;28;20030;-85
2021/04/30 02:49:41;;;;;;;8.77;4.53;;;;;;;;;;4993274;28;20050;-83
2021/04/30 02:52:07;;;;;;;8.20;4.17;;;;;;;;;;4991843;28;20030;-85
2021/04/30 02:54:34;;;;;;;9.07;4.25;;;;;;;;;;4993578;28;20033;-84
2021/04/30 02:57:01;;;;;;;10.10;4.45;;;;;;;;;;4991803;28;20023;-85
2021/04/30 02:59:28;;;;;;;8.88;4.40;;;;;;;;;;4993028;28;20132;-83
2021/04/30 03:01:54;;;;;;;8.77;4.32;;;;;;;;;;4991663;28;20039;-85
2021/04/30 03:04:20;;;;;;;8.02;3.90;;;;;;;;;;4992887;28;20479;-83
2021/04/30 03:06:47;;;;;;;10.10;4.60;;;;;;;;;;4992810;28;20080;-85
2021/04/30 03:09:13;;;;;;;10.55;4.68;;;;;;;;;;4991757;28;20042;-82
2021/04/30 03:11:39;;;;;;;10.43;5.55;;;;;;;;;;4991996;28;20097;-85
2021/04/30 03:14:05;;;;;;;8.50;4.93;;;;;;;;;;4993755;28;20030;-82
2021/04/30 03:16:32;;;;;;;10.43;5.28;;;;;;;;;;4991664;28;20113;-82
2021/04/30 03:18:58;;;;;;;12.98;5.50;;;;;;;;;;4992893;28;20026;-84
2021/04/30 03:21:24;;;;;;;9.32;4.78;;;;;;;;;;4992698;28;20115;-84
2021/04/30 03:23:51;;;;;;;6.97;3.75;;;;;;;;;;4993090;28;20149;-84
2021/04/30 03:26:17;;;;;;;8.57;4.40;;;;;;;;;;4991343;28;20034;-82
2021/04/30 03:28:43;;;;;;;10.38;4.07;;;;;;;;;;4991399;28;20030;-83
2021/04/30 03:31:09;;;;;;;7.75;3.70;;;;;;;;;;4992628;28;20079;-84
2021/04/30 03:33:36;;;;;;;10.23;3.35;;;;;;;;;;4993140;28;20493;-83
2021/04/30 03:36:02;;;;;;;8.32;3.00;;;;;;;;;;4992558;28;20101;-82
2021/04/30 03:38:29;;;;;;;6.07;2.85;;;;;;;;;;4992603;28;20031;-86
2021/04/30 03:40:55;;;;;;;7.70;2.92;;;;;;;;;;4992361;28;20471;-85
2021/04/30 03:43:21;;;;;;;5.32;2.65;;;;;;;;;;4992873;28;20096;-86
2021/04/30 03:45:50;;;;;;;8.57;3.30;;;;;;;;;;4991085;28;20030;-84
2021/04/30 03:48:20;;;;;;;5.93;2.92;;;;;;;;;;4991234;28;20113;-86
2021/04/30 03:50:47;;;;;;;7.15;2.80;;;;;;;;;;4990908;28;20054;-86
2021/04/30 03:53:14;;;;;;;7.88;2.92;;;;;;;;;;4990902;28;20030;-86
2021/04/30 03:55:40;;;;;;;6.03;3.25;;;;;;;;;;4992642;28;20062;-85
2021/04/30 03:58:06;;;;;;;7.60;3.03;;;;;;;;;;4992658;28;20026;-86
2021/04/30 04:00:33;;;;;;;5.55;2.80;;;;;;;;;;4992835;28;20087;-86
2021/04/30 04:02:59;;;;;;;6.00;2.90;;;;;;;;;;4990710;28;20030;-85
2021/04/30 04:05:25;;;;;;;10.25;3.67;;;;;;;;;;4990751;28;20030;-85
2021/04/30 04:07:51;;;;;;;6.07;2.70;;;;;;;;;;4991324;28;20034;-85
2021/04/30 04:10:18;;;;;;;11.68;3.50;;;;;;;;;;4991778;28;20031;-85
2021/04/30 04:12:44;;;;;;;5.03;2.60;;;;;;;;;;4991993;28;20071;-85
2021/04/30 04:15:10;;;;;;;8.48;3.28;;;;;;;;;;4991822;28;20119;-85
2021/04/30 04:17:37;;;;;;;5.45;2.88;;;;;;;;;;4991782;28;20114;-86
2021/04/30 04:20:04;;;;;;;5.88;2.28;;;;;;;;;;4991754;28;20026;-84
2021/04/30 04:22:31;;;;;;;5.20;2.60;;;;;;;;;;4990504;28;20375;-85
2021/04/30 04:24:57;;;;;;;5.28;2.75;;;;;;;;;;4990528;28;20034;-85
2021/04/30 04:27:23;;;;;;;4.70;2.67;;;;;;;;;;4990477;28;20036;-86
2021/04/30 04:29:50;;;;;;;5.00;2.45;;;;;;;;;;4992246;28;20375;-86
2021/04/30 04:32:17;;;;;;;4.93;2.38;;;;;;;;;;4990397;28;20513;-84
2021/04/30 04:34:43;;;;;;;5.45;2.63;;;;;;;;;;4990429;28;20367;-83
2021/04/30 04:37:09;;;;;;;4.35;2.50;;;;;;;;;;4989732;28;20123;-86
2021/04/30 04:39:35;;;;;;;5.78;2.33;;;;;;;;;;4992341;28;20026;-81
2021/04/30 04:42:05;;;;;;;4.93;2.58;;;;;;;;;;4990434;28;20030;-82
2021/04/30 04:44:32;;;;;;;4.85;2.40;;;;;;;;;;4990270;28;20087;-83
2021/04/30 04:46:58;;;;;;;5.97;2.38;;;;;;;;;;4990139;28;20027;-83
2021/04/30 04:49:24;;;;;;;4.00;2.30;;;;;;;;;;4990949;28;20197;-81
2021/04/30 04:51:51;;;;;;;5.43;2.10;;;;;;;;;;4992983;28;20033;-80
2021/04/30 04:54:17;;;;;;;5.40;2.45;;;;;;;;;;4991554;28;20454;-82
2021/04/30 04:56:43;;;;;;;5.40;2.60;;;;;;;;;;4991440;28;20022;-83
2021/04/30 04:59:09;;;;;;;6.78;2.47;;;;;;;;;;4990285;28;20030;-83
2021/04/30 05:01:35;;;;;;;4.90;2.28;;;;;;;;;;4989902;28;20046;-84
2021/04/30 05:04:02;;;;;;;5.68;2.70;;;;;;;;;;4989861;28;20030;-85
2021/04/30 05:06:29;;;;;;;5.95;3.13;;;;;;;;;;4991660;28;20097;-84
2021/04/30 05:08:55;;;;;;;7.40;3.00;;;;;;;;;;4990182;28;20030;-83
2021/04/30 05:11:22;;;;;;;7.60;3.08;;;;;;;;;;4989904;28;20034;-83
2021/04/30 05:13:48;;;;;;;5.13;2.88;;;;;;;;;;4990178;28;20022;-84
2021/04/30 05:16:14;;;;;;;4.43;2.47;;;;;;;;;;4989905;28;20038;-82
2021/04/30 05:18:42;;;;;;;5.88;2.88;;;;;;;;;;4989812;28;20451;-83
2021/04/30 05:21:09;;;;;;;6.20;2.88;;;;;;;;;;4991487;28;20038;-82
2021/04/30 05:23:37;;;;;;;5.00;2.60;;;;;;;;;;4983353;28;20188;-83
2021/04/30 05:26:03;;;;;;;6.32;3.80;;;;;;;;;;5014593;28;20465;-83
2021/04/30 05:28:33;;;;;;;6.15;3.00;;;;;;;;;;4984883;28;20481;-83
2021/04/30 05:30:59;;;;;;;6.35;3.40;;;;;;;;;;4989896;28;20022;-82
2021/04/30 05:33:25;;;;;;;7.65;3.22;;;;;;;;;;4985750;28;20032;-84
2021/04/30 05:35:52;;;;;;;7.07;3.53;;;;;;;;;;4987929;28;20035;-83
2021/04/30 05:38:18;;;;;;;6.03;3.03;;;;;;;;;;4989406;28;20026;-83
2021/04/30 05:40:44;;;;;;;5.28;3.05;;;;;;;;;;4989424;28;20039;-83
2021/04/30 05:43:11;;;;;;;8.95;3.30;;;;;;;;;;4989663;28;20030;-84
2021/04/30 05:45:40;;;;;;;5.50;3.17;;;;;;;;;;4989596;28;20033;-82
2021/04/30 05:48:07;;;;;;;7.38;3.50;;;;;;;;;;4989274;28;20038;-83
2021/04/30 05:50:33;;;;;;;8.45;3.50;;;;;;;;;;4992586;28;20380;-82
2021/04/30 05:52:59;;;;;;;8.73;3.75;;;;;;;;;;4992563;28;20018;-82
2021/04/30 05:55:25;;;;;;;7.72;3.60;;;;;;;;;;4994514;28;20030;-83
2021/04/30 05:57:51;;;;;;;8.88;3.42;;;;;;;;;;4992888;28;20379;-83
2021/04/30 06:00:17;;;;;;;8.18;3.78;;;;;;;;;;5027949;28;20039;-84
2021/04/30 06:02:43;;;;;;;6.50;3.78;;;;;;;;;;5045773;28;20041;-84
2021/04/30 06:05:10;;;;;;;5.60;2.92;;;;;;;;;;5032558;28;20479;-84
2021/04/30 06:07:36;;;;;;;7.35;4.18;;;;;;;;;;4992698;28;20034;-82
2021/04/30 06:10:03;;;;;;;5.25;3.33;;;;;;;;;;4992508;28;20036;-82
2021/04/30 06:12:29;;;;;;;7.63;3.53;;;;;;;;;;4994238;28;20399;-83
2021/04/30 06:14:56;;;;;;;8.70;3.92;;;;;;;;;;4992661;28;20056;-83
2021/04/30 06:17:23;;;;;;;9.93;4.47;;;;;;;;;;4992515;28;20528;-82
2021/04/30 06:19:49;;;;;;;10.45;4.60;;;;;;;;;;4992268;28;20073;-84
2021/04/30 06:22:16;;;;;;;11.98;5.35;;;;;;;;;;4992833;28;20176;-83
2021/04/30 06:24:42;;;;;;;5.70;3.85;;;;;;;;;;4992050;28;20049;-83
2021/04/30 06:27:08;;;;;;;6.45;3.17;;;;;;;;;;4993640;28;20037;-83
2021/04/30 06:29:34;;;;;;;10.10;4.00;;;;;;;;;;4992048;28;20027;-83
2021/04/30 06:32:00;;;;;;;8.60;3.45;;;;;;;;;;4992063;28;20022;-84
2021/04/30 06:34:27;;;;;;;7.63;3.67;;;;;;;;;;4992831;28;20035;-83
2021/04/30 06:36:54;;;;;;;8.60;4.28;;;;;;;;;;4992170;28;20096;-83
2021/04/30 06:39:23;;;;;;;5.13;3.35;;;;;;;;;;4991939;28;20030;-83
2021/04/30 06:41:49;;;;;;;6.30;3.53;;;;;;;;;;4993248;28;20035;-83
2021/04/30 06:44:15;;;;;;;5.45;3.38;;;;;;;;;;4991850;28;20471;-82
2021/04/30 06:46:42;;;;;;;8.27;3.45;;;;;;;;;;4993169;28;20034;-82
2021/04/30 06:49:08;;;;;;;6.82;3.60;;;;;;;;;;4993001;28;20049;-83
2021/04/30 06:51:34;;;;;;;5.68;3.08;;;;;;;;;;4991720;28;20034;-82
2021/04/30 06:54:01;;;;;;;5.10;3.05;;;;;;;;;;4991623;28;20029;-83
2021/04/30 06:56:30;;;;;;;5.60;3.08;;;;;;;;;;4992782;28;20084;-83
2021/04/30 06:58:57;;;;;;;7.88;4.00;;;;;;;;;;4991745;28;20486;-83
2021/04/30 07:01:24;;;;;;;6.18;3.08;;;;;;;;;;4991111;28;20035;-84
2021/04/30 07:03:50;;;;;;;5.00;2.97;;;;;;;;;;4991434;28;20022;-82
2021/04/30 07:06:17;;;;;;;8.25;3.85;;;;;;;;;;4991462;28;20128;-84
2021/04/30 07:08:43;;;;;;;6.60;2.88;;;;;;;;;;4991659;28;20123;-84
2021/04/30 07:11:09;;;;;;;5.20;2.80;;;;;;;;;;4991369;28;20037;-82
2021/04/30 07:13:36;;;;;;;5.18;2.20;;;;;;;;;;4992512;28;20101;-83
2021/04/30 07:16:06;;;;;;;5.15;2.50;;;;;;;;;;4991267;28;20031;-82
2021/04/30 07:18:33;;;;;;;5.07;2.90;;;;;;;;;;4991494;28;20121;-83
2021/04/30 07:20:59;;;;;;;6.70;2.88;;;;;;;;;;4991403;28;20506;-82
2021/04/30 07:23:26;;;;;;;9.90;3.67;;;;;;;;;;4991506;28;20041;-84
2021/04/30 07:25:52;;;;;;;6.80;2.22;;;;;;;;;;4991454;28;20382;-86
2021/04/30 07:28:19;;;;;;;5.70;2.70;;;;;;;;;;4991181;28;20033;-82
2021/04/30 07:30:45;;;;;;;9.32;2.95;;;;;;;;;;4991134;28;20387;-84
2021/04/30 07:33:11;;;;;;;5.15;3.00;;;;;;;;;;4992502;28;20471;-84
2021/04/30 07:35:41;;;;;;;5.70;2.70;;;;;;;;;;4990796;28;20026;-84
2021/04/30 07:38:08;;;;;;;5.90;2.67;;;;;;;;;;4991110;28;20120;-84
2021/04/30 07:40:34;;;;;;;5.28;2.50;;;;;;;;;;4991392;28;20042;-84
2021/04/30 07:43:00;;;;;;;3.83;2.08;;;;;;;;;;4991270;28;20101;-83
2021/04/30 07:45:27;;;;;;;3.95;2.10;;;;;;;;;;4991276;28;20041;-83
2021/04/30 07:47:53;;;;;;;4.13;2.00;;;;;;;;;;4990979;28;20125;-84
2021/04/30 07:50:19;;;;;;;3.50;2.00;;;;;;;;;;4991036;28;20077;-84
2021/04/30 07:52:45;;;;;;;4.35;1.70;;;;;;;;;;4992311;28;20467;-83
2021/04/30 07:55:11;;;;;;;3.60;1.80;;;;;;;;;;4990735;28;20123;-83
2021/04/30 07:57:44;;;;;;;3.58;2.17;;;;;;;;;;4990615;28;20493;-83
2021/04/30 08:00:15;;;;;;;2.58;1.60;;;;;;;;;;4992199;28;20048;-82
2021/04/30 08:02:41;;;;;;;2.97;1.40;;;;;;;;;;4992586;28;20030;-83
2021/04/30 08:05:08;;;;;;;2.83;1.45;;;;;;;;;;4990724;28;20116;-87
2021/04/30 08:07:34;;;;;;;4.50;1.65;;;;;;;;;;4990489;28;20506;-84
2021/04/30 08:10:01;;;;;;;3.15;1.63;;;;;;;;;;4990611;28;20027;-83
2021/04/30 08:12:27;;;;;;;1.90;1.25;;;;;;;;;;4989527;28;20083;-86
2021/04/30 08:14:53;;;;;;;2.90;1.48;;;;;;;;;;4990516;28;20471;-85
2021/04/30 08:17:19;;;;;;;3.45;1.60;;;;;;;;;;4990469;28;20030;-83
2021/04/30 08:19:46;;;;;;;2.83;1.40;;;;;;;;;;4990325;28;20051;-83
2021/04/30 08:22:12;;;;;;;2.35;1.20;;;;;;;;;;4991761;28;20030;-83
2021/04/30 08:24:38;;;;;;;3.03;1.20;;;;;;;;;;4990770;28;20033;-83
2021/04/30 08:27:04;;;;;;;3.38;1.73;;;;;;;;;;4990312;28;20027;-84
2021/04/30 08:29:30;;;;;;;2.38;1.60;;;;;;;;;;4991596;28;20031;-87
2021/04/30 08:31:56;;;;;;;3.30;1.85;;;;;;;;;;4990162;28;20038;-83
2021/04/30 08:34:26;;;;;;;4.40;1.83;;;;;;;;;;4990831;28;20030;-84
2021/04/30 08:36:52;;;;;;;4.72;2.05;;;;;;;;;;4990373;28;20030;-82
2021/04/30 08:39:19;;;;;;;3.45;1.88;;;;;;;;;;4990199;28;20387;-85
2021/04/30 08:41:45;;;;;;;3.20;1.50;;;;;;;;;;4990192;28;20038;-82
2021/04/30 08:44:11;;;;;;;3.28;1.83;;;;;;;;;;4990058;28;20378;-87
2021/04/30 08:46:37;;;;;;;3.42;1.77;;;;;;;;;;4991662;28;20483;-82
2021/04/30 08:49:09;;;;;;;3.60;1.67;;;;;;;;;;4991521;28;20046;-82
2021/04/30 08:51:36;;;;;;;2.97;1.33;;;;;;;;;;4991453;28;20406;-87
2021/04/30 08:54:03;;;;;;;8.55;1.58;;;;;;;;;;4990207;28;20030;-82
2021/04/30 08:56:29;;;;;;;5.07;1.63;;;;;;;;;;4989814;28;20034;-86
2021/04/30 08:58:56;;;;;;;3.70;1.40;;;;;;;;;;4991197;28;20032;-87
2021/04/30 09:01:22;;;;;;;10.10;1.48;;;;;;;;;;4990002;28;20409;-85
2021/04/30 09:03:51;;;;;;;5.32;1.38;;;;;;;;;;4989844;28;20530;-82
2021/04/30 09:06:38;;;;;;;3.78;1.70;;;;;;;;;;4990994;28;20038;-81
2021/04/30 09:09:09;;;;;;;9.35;1.85;;;;;;;;;;4989713;28;20391;-84
2021/04/30 09:11:41;;;;;;;3.13;1.48;;;;;;;;;;4989885;28;20026;-86
2021/04/30 09:14:46;;;;;;;3.72;1.55;;;;;;;;;;4990727;28;20034;-81
2021/04/30 09:17:14;;;;;;;2.63;1.40;;;;;;;;;;4990683;28;20027;-84
2021/04/30 09:19:46;;;;;;;5.35;1.70;;;;;;;;;;4989508;28;20027;-83
2021/04/30 09:22:13;;;;;;;2.33;1.27;;;;;;;;;;4989737;28;20042;-81
2021/04/30 09:24:39;;;;;;;2.70;1.60;;;;;;;;;;4993126;28;20026;-81
2021/04/30 09:27:05;;;;;;;2.65;1.55;;;;;;;;;;4994981;28;20418;-81
2021/04/30 09:29:34;;;;;;;4.05;1.55;;;;;;;;;;4993850;28;20567;-81
2021/04/30 09:32:00;;;;;;;4.50;1.88;;;;;;;;;;4994857;28;20026;-88
2021/04/30 09:34:28;;;;;;;3.38;1.77;;;;;;;;;;4992894;28;20087;-82
2021/04/30 09:36:59;;;;;;;6.45;1.73;;;;;;;;;;4992661;28;20471;-82
2021/04/30 09:39:25;;;;;;;2.65;1.42;;;;;;;;;;4992331;28;20497;-83
2021/04/30 09:42:24;;;;;;;2.33;1.40;;;;;;;;;;4992632;28;20035;-81
2021/04/30 09:44:51;;;;;;;2.70;1.42;;;;;;;;;;4950591;28;20033;-81
2021/04/30 09:47:22;;;;;;;3.97;1.40;;;;;;;;;;4995327;28;20395;-83
2021/04/30 09:49:52;;;;;;;2.10;1.50;;;;;;;;;;4993828;28;20056;-81
2021/04/30 09:52:19;;;;;;;15.35;1.70;;;;;;;;;;4993035;28;20030;-83
2021/04/30 09:54:46;;;;;;;2.60;1.58;;;;;;;;;;4992879;28;20117;-83
2021/04/30 09:57:18;;;;;;;2.50;1.33;;;;;;;;;;4993538;28;20403;-86
2021/04/30 09:59:55;;;;;;;3.60;1.30;;;;;;;;;;4992706;28;20026;-83
2021/04/30 10:02:25;;;;;;;4.45;1.88;;;;;;;;;;4994482;28;20043;-81
2021/04/30 10:05:09;;;;;;;3.67;1.40;;;;;;;;;;5000118;28;20454;-83
2021/04/30 10:07:36;;;;;;;3.33;1.60;;;;;;;;;;4997438;28;20050;-82
2021/04/30 10:10:05;;;;;;;3.22;1.23;;;;;;;;;;4993753;28;20055;-83
2021/04/30 10:12:31;;;;;;;2.65;1.45;;;;;;;;;;4992394;28;20777;-86
2021/04/30 10:14:58;;;;;;;4.35;1.50;;;;;;;;;;4992754;28;20034;-84
2021/04/30 10:17:24;;;;;;;3.15;1.75;;;;;;;;;;4992298;28;20042;-83
2021/04/30 10:19:51;;;;;;;2.35;1.30;;;;;;;;;;4992170;28;20023;-83
2021/04/30 10:22:20;;;;;;;4.57;1.63;;;;;;;;;;4993574;28;20038;-82
2021/04/30 10:24:48;;;;;;;3.97;1.50;;;;;;;;;;4992916;28;20026;-82
2021/04/30 10:27:19;;;;;;;2.85;1.70;;;;;;;;;;4993556;28;20034;-82
2021/04/30 10:29:54;;;;;;;3.00;1.80;;;;;;;;;;4992129;28;20019;-82
2021/04/30 10:32:21;;;;;;;4.22;1.70;;;;;;;;;;4992202;28;20027;-82
2021/04/30 10:34:49;;;;;;;3.28;1.50;;;;;;;;;;4991336;28;20112;-84
2021/04/30 10:37:21;;;;;;;3.05;1.20;;;;;;;;;;4993313;28;20022;-82
2021/04/30 10:39:57;;;;;;;5.72;1.40;;;;;;;;;;4992019;28;20049;-82
2021/04/30 10:42:27;;;;;;;4.57;1.55;;;;;;;;;;4992004;28;20091;-87
2021/04/30 10:45:01;;;;;;;5.65;3.10;;;;;;;;;;4992140;28;20455;-86
2021/04/30 10:47:28;;;;;;;6.10;2.55;;;;;;;;;;5007216;28;20030;-83
2021/04/30 10:50:11;;;;;;;7.78;2.97;;;;;;;;;;5011116;28;20050;-87
2021/04/30 10:52:37;;;;;;;17.85;6.75;;;;;;;;;;5011539;28;20490;-82
2021/04/30 10:55:08;;;;;;;4.47;2.33;;;;;;;;;;5011517;28;20034;-83
2021/04/30 10:57:46;;;;;;;3.10;1.38;;;;;;;;;;5000890;28;20029;-84
2021/04/30 11:00:13;;;;;;;3.85;1.50;;;;;;;;;;4991637;28;20475;-83
2021/04/30 11:02:39;;;;;;;4.10;1.70;;;;;;;;;;4992979;28;20061;-81
2021/04/30 11:05:06;;;;;;;3.08;1.80;;;;;;;;;;4992855;28;20033;-82
2021/04/30 11:07:58;;;;;;;2.33;1.40;;;;;;;;;;4980426;28;20047;-83
2021/04/30 11:10:30;;;;;;;5.65;3.15;;;;;;;;;;4974230;28;20455;-83
2021/04/30 11:12:58;;;;;;;2.42;1.23;;;;;;;;;;4971680;28;20128;-83
2021/04/30 11:15:24;;;;;;;4.05;1.80;;;;;;;;;;4971530;28;20034;-82
2021/04/30 11:17:58;;;;;;;4.05;1.98;;;;;;;;;;4971975;28;20029;-83
2021/04/30 11:20:28;;;;;;;2.92;1.38;;;;;;;;;;4971906;28;20031;-82
2021/04/30 11:23:13;;;;;;;4.20;1.23;;;;;;;;;;4972071;28;20114;-82
2021/04/30 11:26:00;;;;;;;2.22;1.20;;;;;;;;;;4971724;28;20027;-83
2021/04/30 11:28:30;;;;;;;3.42;1.77;;;;;;;;;;4971747;28;20037;-82
2021/04/30 11:31:05;;;;;;;4.22;1.40;;;;;;;;;;4971727;28;20038;-83
2021/04/30 11:33:32;;;;;;;4.20;1.50;;;;;;;;;;4971707;28;20054;-82
2021/04/30 11:35:59;;;;;;;3.88;1.60;;;;;;;;;;4971925;28;20387;-82
2021/04/30 11:38:39;;;;;;;2.97;1.58;;;;;;;;;;4971620;28;20026;-82
2021/04/30 11:41:05;;;;;;;4.00;2.10;;;;;;;;;;4973022;28;20100;-84
2021/04/30 11:43:31;;;;;;;2.70;1.52;;;;;;;;;;4971547;28;20027;-83
2021/04/30 11:45:58;;;;;;;2.78;1.55;;;;;;;;;;4971425;28;20479;-83
2021/04/30 11:48:25;;;;;;;5.70;1.30;;;;;;;;;;4971506;28;20023;-83
2021/04/30 11:51:00;;;;;;;3.53;1.55;;;;;;;;;;4971298;28;20055;-83
2021/04/30 11:53:26;;;;;;;8.05;3.80;;;;;;;;;;4971470;28;20031;-83
2021/04/30 11:55:53;;;;;;;4.75;2.60;;;;;;;;;;4971255;28;20494;-83
2021/04/30 11:58:19;;;;;;;4.22;1.67;;;;;;;;;;4987502;28;20467;-84
2021/04/30 12:00:52;;;;;;;2.28;1.48;;;;;;;;;;4990512;28;20474;-83
2021/04/30 12:03:18;;;;;;;7.05;4.05;;;;;;;;;;4990571;28;20364;-82
2021/04/30 12:05:44;;;;;;;10.80;5.80;;;;;;;;;;4990464;28;20094;-83
2021/04/30 12:08:11;;;;;;;8.30;4.65;;;;;;;;;;4991016;28;20471;-83
2021/04/30 12:10:40;;;;;;;3.78;2.28;;;;;;;;;;4990510;28;20034;-82
2021/04/30 12:13:07;;;;;;;3.90;2.03;;;;;;;;;;4991400;28;20120;-84
2021/04/30 12:15:40;;;;;;;4.68;2.92;;;;;;;;;;4990560;28;20030;-85
2021/04/30 12:18:06;;;;;;;;;;;;;;;;;;4991903;28;20484;-87
2021/04/30 12:20:33;;;;;;;3.05;1.27;;;;;;;;;;4990218;28;20263;-83
2021/04/30 12:23:01;;;;;;;5.18;2.30;;;;;;;;;;4990432;28;20034;-83
2021/04/30 12:25:27;;;;;;;8.50;5.00;;;;;;;;;;4990156;28;20499;-83
2021/04/30 12:27:54;;;;;;;4.53;2.90;;;;;;;;;;4990300;28;20179;-84
2021/04/30 12:30:32;;;;;;;5.13;2.28;;;;;;;;;;4990318;28;20036;-83
2021/04/30 12:32:59;;;;;;;6.38;2.40;;;;;;;;;;4990226;28;20026;-83
2021/04/30 12:35:25;;;;;;;8.48;3.92;;;;;;;;;;4990354;28;20122;-83
2021/04/30 12:37:52;;;;;;;8.32;3.60;;;;;;;;;;4990031;28;20033;-82
2021/04/30 12:40:23;;;;;;;6.88;4.03;;;;;;;;;;4990151;28;20041;-81
2021/04/30 12:42:50;;;;;;;5.13;3.00;;;;;;;;;;4990215;28;20030;-81
2021/04/30 12:45:17;;;;;;;13.82;10.85;;;;;;;;;;4990147;28;20030;-81
2021/04/30 12:47:44;;;;;;;5.90;3.05;;;;;;;;;;4990323;28;20027;-81
2021/04/30 12:50:13;;;;;;;6.15;3.10;;;;;;;;;;4990930;28;20074;-83
2021/04/30 12:52:40;;;;;;;5.55;3.00;;;;;;;;;;4990263;28;20096;-83
2021/04/30 12:55:22;;;;;;;7.25;3.70;;;;;;;;;;4991546;28;20022;-88
2021/04/30 12:57:58;;;;;;;7.78;3.33;;;;;;;;;;4990742;28;20109;-86
2021/04/30 13:00:25;;;;;;;5.68;3.13;;;;;;;;;;4989977;28;20088;-84
2021/04/30 13:02:51;;;;;;;12.73;6.05;;;;;;;;;;4989968;28;20114;-89
2021/04/30 13:05:17;;;;;;;7.00;3.38;;;;;;;;;;4990308;28;20510;-87
2021/04/30 13:07:44;;;;;;;40.60;18.38;;;;;;;;;;4991235;28;20014;-82
2021/04/30 13:10:20;;;;;;;13.13;6.07;;;;;;;;;;4989701;28;20117;-83
2021/04/30 13:12:47;;;;;;;10.50;4.50;;;;;;;;;;4989713;28;20505;-81
2021/04/30 13:15:13;;;;;;;7.63;4.82;;;;;;;;;;4988937;28;20037;-84
2021/04/30 13:17:39;;;;;;;9.20;5.00;;;;;;;;;;4995084;28;20023;-88
2021/04/30 13:20:18;;;;;;;7.55;4.57;;;;;;;;;;4989583;28;20167;-81
2021/04/30 13:22:44;;;;;;;7.85;4.90;;;;;;;;;;4990437;28;20034;-85
2021/04/30 13:25:14;;;;;;;6.93;4.25;;;;;;;;;;4990034;28;20536;-87
2021/04/30 13:27:47;;;;;;;8.23;5.95;;;;;;;;;;4989866;28;20084;-87
2021/04/30 13:30:14;;;;;;;7.93;5.05;;;;;;;;;;4989545;28;20023;-84
2021/04/30 13:32:40;;;;;;;8.40;4.78;;;;;;;;;;4991017;28;20054;-85
2021/04/30 13:35:07;;;;;;;9.25;4.70;;;;;;;;;;4990471;28;20036;-88
2021/04/30 13:37:39;;;;;;;11.25;6.55;;;;;;;;;;4990966;28;20023;-89
2021/04/30 13:40:09;;;;;;;6.63;4.73;;;;;;;;;;4991225;28;20038;-92
2021/04/30 13:42:42;;;;;;;6.55;4.20;;;;;;;;;;4991380;28;20034;-89
2021/04/30 13:45:10;;;;;;;6.82;4.03;;;;;;;;;;4990602;28;20033;-92
2021/04/30 13:47:37;;;;;;;7.35;3.83;;;;;;;;;;4990736;28;20031;-88
2021/04/30 13:50:12;;;;;;;7.28;4.55;;;;;;;;;;4989209;28;20043;-82
2021/04/30 13:52:39;;;;;;;7.13;4.38;;;;;;;;;;4990702;28;20467;-77
2021/04/30 13:55:06;;;;;;;6.10;4.15;;;;;;;;;;4989624;28;20026;-87
2021/04/30 13:57:32;;;;;;;5.50;3.65;;;;;;;;;;4990163;28;20030;-89
2021/04/30 13:59:58;;;;;;;6.68;3.35;;;;;;;;;;4991296;28;20363;-84
2021/04/30 14:02:26;;;;;;;6.07;3.78;;;;;;;;;;4990967;28;20027;-91
2021/04/30 14:04:52;;;;;;;7.13;3.50;;;;;;;;;;4990227;28;20062;-90
2021/04/30 14:07:18;;;;;;;23.88;12.75;;;;;;;;;;4991142;28;20022;-83
2021/04/30 14:09:46;;;;;;;10.55;4.50;;;;;;;;;;4990483;28;20034;-86
2021/04/30 14:12:15;;;;;;;11.20;2.85;;;;;;;;;;4992724;28;20453;-87
2021/04/30 14:14:41;;;;;;;8.63;2.83;;;;;;;;;;4993309;28;20390;-88
2021/04/30 14:17:07;;;;;;;6.15;2.50;;;;;;;;;;4993315;28;20030;-85
